sensor_id;sensor_type;location;lat;lon;timestamp;P1;durP1;ratioP1;P2;durP2;ratioP2
43676;SDS011;29275;48.800;18.102;2023-03-31T00:00:09;14.57;;;9.18;;
43676;SDS011;29275;48.800;18.102;2023-03-31T00:03:13;15.52;;;8.95;;
43676;SDS011;29275;48.800;18.102;2023-03-31T00:06:23;15.77;;;8.45;;
43676;SDS011;29275;48.800;18.102;2023-03-31T00:09:26;12.30;;;7.63;;
43676;SDS011;29275;48.800;18.102;2023-03-31T00:12:31;14.70;;;8.73;;
43676;SDS011;29275;48.800;18.102;2023-03-31T00:15:33;13.05;;;8.50;;
43676;SDS011;29275;48.800;18.102;2023-03-31T00:18:36;14.30;;;7.18;;
43676;SDS011;29275;48.800;18.102;2023-03-31T00:21:42;14.48;;;7.63;;
43676;SDS011;29275;48.800;18.102;2023-03-31T00:24:46;10.80;;;6.82;;
43676;SDS011;29275;48.800;18.102;2023-03-31T00:27:49;13.15;;;7.32;;
43676;SDS011;29275;48.800;18.102;2023-03-31T00:30:58;16.25;;;7.05;;
43676;SDS011;29275;48.800;18.102;2023-03-31T00:34:03;15.00;;;8.25;;
43676;SDS011;29275;48.800;18.102;2023-03-31T00:37:08;12.48;;;6.40;;
43676;SDS011;29275;48.800;18.102;2023-03-31T00:40:11;20.10;;;11.48;;
43676;SDS011;29275;48.800;18.102;2023-03-31T00:43:22;15.50;;;9.48;;
43676;SDS011;29275;48.800;18.102;2023-03-31T00:46:32;20.25;;;11.25;;
43676;SDS011;29275;48.800;18.102;2023-03-31T00:52:43;27.70;;;14.07;;
43676;SDS011;29275;48.800;18.102;2023-03-31T00:55:48;20.85;;;12.18;;
43676;SDS011;29275;48.800;18.102;2023-03-31T00:58:54;29.27;;;13.40;;
43676;SDS011;29275;48.800;18.102;2023-03-31T01:01:59;16.10;;;9.85;;
43676;SDS011;29275;48.800;18.102;2023-03-31T01:05:04;25.65;;;11.10;;
43676;SDS011;29275;48.800;18.102;2023-03-31T01:08:07;18.90;;;10.68;;
43676;SDS011;29275;48.800;18.102;2023-03-31T01:11:11;21.52;;;11.77;;
43676;SDS011;29275;48.800;18.102;2023-03-31T01:14:17;18.55;;;10.95;;
43676;SDS011;29275;48.800;18.102;2023-03-31T01:17:20;17.88;;;10.02;;
43676;SDS011;29275;48.800;18.102;2023-03-31T01:20:40;16.52;;;10.35;;
43676;SDS011;29275;48.800;18.102;2023-03-31T01:33:59;21.77;;;10.57;;
43676;SDS011;29275;48.800;18.102;2023-03-31T01:44:36;24.38;;;13.20;;
43676;SDS011;29275;48.800;18.102;2023-03-31T01:47:51;25.38;;;13.25;;
43676;SDS011;29275;48.800;18.102;2023-03-31T01:55:01;19.20;;;10.32;;
43676;SDS011;29275;48.800;18.102;2023-03-31T01:58:10;22.52;;;11.93;;
43676;SDS011;29275;48.800;18.102;2023-03-31T02:01:20;24.92;;;12.82;;
43676;SDS011;29275;48.800;18.102;2023-03-31T02:04:32;21.80;;;10.10;;
43676;SDS011;29275;48.800;18.102;2023-03-31T02:07:39;26.90;;;13.63;;
43676;SDS011;29275;48.800;18.102;2023-03-31T02:11:00;22.77;;;12.13;;
43676;SDS011;29275;48.800;18.102;2023-03-31T02:14:04;23.98;;;12.60;;
43676;SDS011;29275;48.800;18.102;2023-03-31T02:17:14;25.77;;;12.23;;
43676;SDS011;29275;48.800;18.102;2023-03-31T02:23:23;23.73;;;11.85;;
43676;SDS011;29275;48.800;18.102;2023-03-31T02:26:33;20.23;;;11.52;;
43676;SDS011;29275;48.800;18.102;2023-03-31T02:29:43;25.15;;;13.45;;
43676;SDS011;29275;48.800;18.102;2023-03-31T02:32:46;20.25;;;11.48;;
43676;SDS011;29275;48.800;18.102;2023-03-31T02:35:49;24.05;;;13.40;;
43676;SDS011;29275;48.800;18.102;2023-03-31T02:39:07;21.27;;;11.05;;
43676;SDS011;29275;48.800;18.102;2023-03-31T02:42:11;26.23;;;13.10;;
43676;SDS011;29275;48.800;18.102;2023-03-31T02:48:48;17.40;;;10.68;;
43676;SDS011;29275;48.800;18.102;2023-03-31T03:05:11;27.38;;;13.85;;
43676;SDS011;29275;48.800;18.102;2023-03-31T03:12:05;29.10;;;14.52;;
43676;SDS011;29275;48.800;18.102;2023-03-31T03:18:59;24.13;;;12.88;;
43676;SDS011;29275;48.800;18.102;2023-03-31T03:22:03;21.75;;;12.15;;
43676;SDS011;29275;48.800;18.102;2023-03-31T03:25:11;22.90;;;12.97;;
43676;SDS011;29275;48.800;18.102;2023-03-31T03:28:15;41.63;;;13.90;;
43676;SDS011;29275;48.800;18.102;2023-03-31T03:31:19;73.75;;;16.15;;
43676;SDS011;29275;48.800;18.102;2023-03-31T03:34:25;28.47;;;13.57;;
43676;SDS011;29275;48.800;18.102;2023-03-31T03:37:28;34.15;;;13.63;;
43676;SDS011;29275;48.800;18.102;2023-03-31T03:40:31;16.30;;;9.93;;
43676;SDS011;29275;48.800;18.102;2023-03-31T03:43:34;52.13;;;14.48;;
43676;SDS011;29275;48.800;18.102;2023-03-31T03:46:37;49.70;;;14.15;;
43676;SDS011;29275;48.800;18.102;2023-03-31T03:49:40;44.22;;;12.70;;
43676;SDS011;29275;48.800;18.102;2023-03-31T03:52:43;19.60;;;10.27;;
43676;SDS011;29275;48.800;18.102;2023-03-31T03:55:46;48.45;;;13.60;;
43676;SDS011;29275;48.800;18.102;2023-03-31T03:58:51;25.30;;;12.00;;
43676;SDS011;29275;48.800;18.102;2023-03-31T04:01:53;28.58;;;12.35;;
43676;SDS011;29275;48.800;18.102;2023-03-31T04:04:56;24.35;;;12.30;;
43676;SDS011;29275;48.800;18.102;2023-03-31T04:07:59;20.73;;;11.75;;
43676;SDS011;29275;48.800;18.102;2023-03-31T04:11:02;36.03;;;13.15;;
43676;SDS011;29275;48.800;18.102;2023-03-31T04:14:18;37.30;;;14.48;;
43676;SDS011;29275;48.800;18.102;2023-03-31T04:17:20;23.30;;;13.00;;
43676;SDS011;29275;48.800;18.102;2023-03-31T04:20:36;22.38;;;13.13;;
43676;SDS011;29275;48.800;18.102;2023-03-31T04:23:39;34.03;;;13.73;;
43676;SDS011;29275;48.800;18.102;2023-03-31T04:26:48;50.10;;;23.13;;
43676;SDS011;29275;48.800;18.102;2023-03-31T04:29:52;28.30;;;14.43;;
43676;SDS011;29275;48.800;18.102;2023-03-31T04:32:59;20.33;;;11.20;;
43676;SDS011;29275;48.800;18.102;2023-03-31T04:36:07;33.58;;;12.18;;
43676;SDS011;29275;48.800;18.102;2023-03-31T04:39:19;32.33;;;12.48;;
43676;SDS011;29275;48.800;18.102;2023-03-31T04:42:28;18.67;;;9.25;;
43676;SDS011;29275;48.800;18.102;2023-03-31T04:45:30;23.98;;;12.20;;
43676;SDS011;29275;48.800;18.102;2023-03-31T04:48:34;47.88;;;14.32;;
43676;SDS011;29275;48.800;18.102;2023-03-31T04:51:37;32.95;;;13.73;;
43676;SDS011;29275;48.800;18.102;2023-03-31T04:54:40;17.13;;;9.80;;
43676;SDS011;29275;48.800;18.102;2023-03-31T04:57:42;20.67;;;10.98;;
43676;SDS011;29275;48.800;18.102;2023-03-31T05:00:45;35.03;;;12.23;;
43676;SDS011;29275;48.800;18.102;2023-03-31T05:03:48;33.95;;;13.70;;
43676;SDS011;29275;48.800;18.102;2023-03-31T05:06:52;23.27;;;11.88;;
43676;SDS011;29275;48.800;18.102;2023-03-31T05:09:54;34.28;;;13.32;;
43676;SDS011;29275;48.800;18.102;2023-03-31T05:12:59;15.55;;;10.15;;
43676;SDS011;29275;48.800;18.102;2023-03-31T05:16:06;46.33;;;15.07;;
43676;SDS011;29275;48.800;18.102;2023-03-31T05:19:10;17.60;;;10.48;;
43676;SDS011;29275;48.800;18.102;2023-03-31T05:22:13;39.60;;;12.20;;
43676;SDS011;29275;48.800;18.102;2023-03-31T05:25:16;53.88;;;13.38;;
43676;SDS011;29275;48.800;18.102;2023-03-31T05:28:22;30.35;;;11.73;;
43676;SDS011;29275;48.800;18.102;2023-03-31T05:31:25;19.30;;;10.27;;
43676;SDS011;29275;48.800;18.102;2023-03-31T05:34:28;16.92;;;9.77;;
43676;SDS011;29275;48.800;18.102;2023-03-31T05:37:31;26.73;;;12.60;;
43676;SDS011;29275;48.800;18.102;2023-03-31T05:40:34;42.35;;;13.50;;
43676;SDS011;29275;48.800;18.102;2023-03-31T05:43:37;27.60;;;11.48;;
43676;SDS011;29275;48.800;18.102;2023-03-31T05:46:41;32.72;;;11.93;;
43676;SDS011;29275;48.800;18.102;2023-03-31T05:49:45;37.10;;;12.15;;
43676;SDS011;29275;48.800;18.102;2023-03-31T05:52:48;54.78;;;13.27;;
43676;SDS011;29275;48.800;18.102;2023-03-31T05:55:55;20.33;;;11.65;;
43676;SDS011;29275;48.800;18.102;2023-03-31T05:58:59;34.47;;;13.20;;
43676;SDS011;29275;48.800;18.102;2023-03-31T06:02:03;34.47;;;13.50;;
43676;SDS011;29275;48.800;18.102;2023-03-31T06:05:06;17.58;;;9.95;;
43676;SDS011;29275;48.800;18.102;2023-03-31T06:08:09;24.02;;;11.38;;
43676;SDS011;29275;48.800;18.102;2023-03-31T06:11:17;30.65;;;14.23;;
43676;SDS011;29275;48.800;18.102;2023-03-31T06:14:21;29.38;;;11.63;;
43676;SDS011;29275;48.800;18.102;2023-03-31T06:17:26;21.60;;;10.13;;
43676;SDS011;29275;48.800;18.102;2023-03-31T06:20:29;28.70;;;10.77;;
43676;SDS011;29275;48.800;18.102;2023-03-31T06:23:32;26.90;;;11.65;;
43676;SDS011;29275;48.800;18.102;2023-03-31T06:26:36;23.50;;;11.45;;
43676;SDS011;29275;48.800;18.102;2023-03-31T06:29:39;27.27;;;12.85;;
43676;SDS011;29275;48.800;18.102;2023-03-31T06:32:42;25.50;;;12.90;;
43676;SDS011;29275;48.800;18.102;2023-03-31T06:35:45;33.25;;;12.27;;
43676;SDS011;29275;48.800;18.102;2023-03-31T06:38:48;19.67;;;11.70;;
43676;SDS011;29275;48.800;18.102;2023-03-31T06:41:52;34.03;;;13.68;;
43676;SDS011;29275;48.800;18.102;2023-03-31T06:45:01;19.85;;;11.90;;
43676;SDS011;29275;48.800;18.102;2023-03-31T06:48:05;44.63;;;12.05;;
43676;SDS011;29275;48.800;18.102;2023-03-31T06:51:08;27.15;;;11.82;;
43676;SDS011;29275;48.800;18.102;2023-03-31T06:54:12;51.30;;;14.35;;
43676;SDS011;29275;48.800;18.102;2023-03-31T06:57:15;18.90;;;10.75;;
43676;SDS011;29275;48.800;18.102;2023-03-31T07:00:18;27.17;;;12.52;;
43676;SDS011;29275;48.800;18.102;2023-03-31T07:03:24;48.53;;;14.27;;
43676;SDS011;29275;48.800;18.102;2023-03-31T07:06:27;20.15;;;11.90;;
43676;SDS011;29275;48.800;18.102;2023-03-31T07:09:30;24.35;;;10.70;;
43676;SDS011;29275;48.800;18.102;2023-03-31T07:12:33;24.67;;;11.55;;
43676;SDS011;29275;48.800;18.102;2023-03-31T07:15:36;22.73;;;12.00;;
43676;SDS011;29275;48.800;18.102;2023-03-31T07:18:39;17.48;;;10.75;;
43676;SDS011;29275;48.800;18.102;2023-03-31T07:21:43;19.25;;;9.95;;
43676;SDS011;29275;48.800;18.102;2023-03-31T07:24:47;17.08;;;10.27;;
43676;SDS011;29275;48.800;18.102;2023-03-31T07:27:50;25.35;;;11.50;;
43676;SDS011;29275;48.800;18.102;2023-03-31T07:30:52;22.05;;;12.05;;
43676;SDS011;29275;48.800;18.102;2023-03-31T07:33:55;16.10;;;9.95;;
43676;SDS011;29275;48.800;18.102;2023-03-31T07:36:58;17.27;;;9.88;;
43676;SDS011;29275;48.800;18.102;2023-03-31T07:40:02;21.05;;;12.77;;
43676;SDS011;29275;48.800;18.102;2023-03-31T07:43:07;22.67;;;12.10;;
43676;SDS011;29275;48.800;18.102;2023-03-31T07:46:23;22.25;;;12.70;;
43676;SDS011;29275;48.800;18.102;2023-03-31T07:49:28;25.55;;;12.20;;
43676;SDS011;29275;48.800;18.102;2023-03-31T07:52:31;23.90;;;12.43;;
43676;SDS011;29275;48.800;18.102;2023-03-31T07:55:37;59.72;;;15.00;;
43676;SDS011;29275;48.800;18.102;2023-03-31T07:58:39;39.17;;;14.25;;
43676;SDS011;29275;48.800;18.102;2023-03-31T08:01:42;26.85;;;13.77;;
43676;SDS011;29275;48.800;18.102;2023-03-31T08:04:46;43.67;;;12.80;;
43676;SDS011;29275;48.800;18.102;2023-03-31T08:07:49;39.05;;;14.20;;
43676;SDS011;29275;48.800;18.102;2023-03-31T08:10:52;21.05;;;11.95;;
43676;SDS011;29275;48.800;18.102;2023-03-31T08:13:55;17.50;;;9.95;;
43676;SDS011;29275;48.800;18.102;2023-03-31T08:16:58;25.38;;;12.15;;
43676;SDS011;29275;48.800;18.102;2023-03-31T08:20:02;21.95;;;10.30;;
43676;SDS011;29275;48.800;18.102;2023-03-31T08:23:09;17.02;;;9.88;;
43676;SDS011;29275;48.800;18.102;2023-03-31T08:26:14;21.13;;;12.07;;
43676;SDS011;29275;48.800;18.102;2023-03-31T08:29:21;18.67;;;9.85;;
43676;SDS011;29275;48.800;18.102;2023-03-31T08:32:24;23.23;;;12.63;;
43676;SDS011;29275;48.800;18.102;2023-03-31T08:35:26;18.20;;;11.57;;
43676;SDS011;29275;48.800;18.102;2023-03-31T08:38:29;25.52;;;13.43;;
43676;SDS011;29275;48.800;18.102;2023-03-31T08:41:35;26.83;;;14.55;;
43676;SDS011;29275;48.800;18.102;2023-03-31T08:44:57;23.55;;;14.10;;
43676;SDS011;29275;48.800;18.102;2023-03-31T08:48:05;23.73;;;12.38;;
43676;SDS011;29275;48.800;18.102;2023-03-31T08:51:30;22.40;;;12.02;;
43676;SDS011;29275;48.800;18.102;2023-03-31T08:54:42;21.02;;;11.45;;
43676;SDS011;29275;48.800;18.102;2023-03-31T09:08:23;16.85;;;9.65;;
43676;SDS011;29275;48.800;18.102;2023-03-31T09:11:42;17.27;;;10.50;;
43676;SDS011;29275;48.800;18.102;2023-03-31T09:24:42;15.82;;;9.82;;
43676;SDS011;29275;48.800;18.102;2023-03-31T09:28:05;13.63;;;7.97;;
43676;SDS011;29275;48.800;18.102;2023-03-31T09:31:16;18.02;;;9.32;;
43676;SDS011;29275;48.800;18.102;2023-03-31T09:34:26;14.82;;;8.73;;
43676;SDS011;29275;48.800;18.102;2023-03-31T09:37:31;16.65;;;10.45;;
43676;SDS011;29275;48.800;18.102;2023-03-31T09:40:34;15.15;;;10.32;;
43676;SDS011;29275;48.800;18.102;2023-03-31T09:43:37;13.80;;;8.85;;
43676;SDS011;29275;48.800;18.102;2023-03-31T09:46:42;14.38;;;7.60;;
43676;SDS011;29275;48.800;18.102;2023-03-31T09:49:45;12.93;;;7.25;;
43676;SDS011;29275;48.800;18.102;2023-03-31T09:52:56;13.43;;;8.63;;
43676;SDS011;29275;48.800;18.102;2023-03-31T09:56:01;13.00;;;7.68;;
43676;SDS011;29275;48.800;18.102;2023-03-31T09:59:12;15.27;;;8.45;;
43676;SDS011;29275;48.800;18.102;2023-03-31T10:05:30;13.48;;;8.40;;
43676;SDS011;29275;48.800;18.102;2023-03-31T10:08:37;13.80;;;8.57;;
43676;SDS011;29275;48.800;18.102;2023-03-31T10:15:18;12.93;;;8.68;;
43676;SDS011;29275;48.800;18.102;2023-03-31T10:18:31;13.43;;;8.52;;
43676;SDS011;29275;48.800;18.102;2023-03-31T10:21:38;12.35;;;8.05;;
43676;SDS011;29275;48.800;18.102;2023-03-31T10:24:43;11.98;;;7.70;;
43676;SDS011;29275;48.800;18.102;2023-03-31T10:27:47;12.55;;;8.18;;
43676;SDS011;29275;48.800;18.102;2023-03-31T10:30:54;11.43;;;7.72;;
43676;SDS011;29275;48.800;18.102;2023-03-31T10:34:08;14.02;;;8.27;;
43676;SDS011;29275;48.800;18.102;2023-03-31T10:37:17;14.50;;;8.43;;
43676;SDS011;29275;48.800;18.102;2023-03-31T10:40:23;14.65;;;8.93;;
43676;SDS011;29275;48.800;18.102;2023-03-31T10:43:28;17.08;;;9.85;;
43676;SDS011;29275;48.800;18.102;2023-03-31T10:46:48;14.27;;;8.38;;
43676;SDS011;29275;48.800;18.102;2023-03-31T10:49:55;11.77;;;7.85;;
43676;SDS011;29275;48.800;18.102;2023-03-31T10:53:03;11.93;;;8.18;;
43676;SDS011;29275;48.800;18.102;2023-03-31T10:59:55;15.70;;;8.90;;
43676;SDS011;29275;48.800;18.102;2023-03-31T11:06:52;17.10;;;9.18;;
43676;SDS011;29275;48.800;18.102;2023-03-31T11:13:21;13.98;;;8.93;;
43676;SDS011;29275;48.800;18.102;2023-03-31T11:19:36;14.50;;;8.68;;
43676;SDS011;29275;48.800;18.102;2023-03-31T11:22:52;13.25;;;8.38;;
43676;SDS011;29275;48.800;18.102;2023-03-31T11:26:10;15.88;;;7.82;;
43676;SDS011;29275;48.800;18.102;2023-03-31T11:36:04;11.95;;;7.32;;
43676;SDS011;29275;48.800;18.102;2023-03-31T11:42:28;12.23;;;8.55;;
43676;SDS011;29275;48.800;18.102;2023-03-31T11:45:40;11.45;;;8.02;;
43676;SDS011;29275;48.800;18.102;2023-03-31T11:52:01;10.50;;;7.03;;
43676;SDS011;29275;48.800;18.102;2023-03-31T11:58:20;12.50;;;7.70;;
43676;SDS011;29275;48.800;18.102;2023-03-31T12:01:40;10.68;;;6.75;;
43676;SDS011;29275;48.800;18.102;2023-03-31T12:04:47;11.63;;;6.97;;
43676;SDS011;29275;48.800;18.102;2023-03-31T12:07:57;10.52;;;6.35;;
43676;SDS011;29275;48.800;18.102;2023-03-31T12:11:18;11.10;;;6.88;;
43676;SDS011;29275;48.800;18.102;2023-03-31T12:14:32;11.60;;;7.05;;
43676;SDS011;29275;48.800;18.102;2023-03-31T12:17:38;12.50;;;7.10;;
43676;SDS011;29275;48.800;18.102;2023-03-31T12:20:47;12.15;;;6.03;;
43676;SDS011;29275;48.800;18.102;2023-03-31T12:23:53;10.32;;;6.28;;
43676;SDS011;29275;48.800;18.102;2023-03-31T12:30:30;6.93;;;3.55;;
43676;SDS011;29275;48.800;18.102;2023-03-31T12:33:39;9.27;;;3.83;;
43676;SDS011;29275;48.800;18.102;2023-03-31T12:53:36;12.02;;;5.28;;
43676;SDS011;29275;48.800;18.102;2023-03-31T13:06:45;11.73;;;6.05;;
43676;SDS011;29275;48.800;18.102;2023-03-31T13:09:55;9.70;;;5.55;;
43676;SDS011;29275;48.800;18.102;2023-03-31T13:16:03;9.20;;;6.22;;
43676;SDS011;29275;48.800;18.102;2023-03-31T13:19:12;9.50;;;6.65;;
43676;SDS011;29275;48.800;18.102;2023-03-31T13:22:35;9.52;;;6.65;;
43676;SDS011;29275;48.800;18.102;2023-03-31T13:25:46;9.25;;;5.90;;
43676;SDS011;29275;48.800;18.102;2023-03-31T13:32:19;10.20;;;6.75;;
43676;SDS011;29275;48.800;18.102;2023-03-31T13:35:26;11.40;;;7.47;;
43676;SDS011;29275;48.800;18.102;2023-03-31T13:49:03;11.20;;;7.80;;
43676;SDS011;29275;48.800;18.102;2023-03-31T14:03:26;10.18;;;7.03;;
43676;SDS011;29275;48.800;18.102;2023-03-31T14:06:36;12.95;;;7.97;;
43676;SDS011;29275;48.800;18.102;2023-03-31T14:09:42;12.35;;;8.30;;
43676;SDS011;29275;48.800;18.102;2023-03-31T14:12:50;12.15;;;8.63;;
43676;SDS011;29275;48.800;18.102;2023-03-31T14:15:55;8.70;;;6.82;;
43676;SDS011;29275;48.800;18.102;2023-03-31T14:19:08;13.70;;;9.32;;
43676;SDS011;29275;48.800;18.102;2023-03-31T14:29:03;30.73;;;16.85;;
43676;SDS011;29275;48.800;18.102;2023-03-31T14:36:00;32.85;;;16.83;;
43676;SDS011;29275;48.800;18.102;2023-03-31T14:39:21;21.10;;;13.77;;
43676;SDS011;29275;48.800;18.102;2023-03-31T14:42:26;18.27;;;12.15;;
43676;SDS011;29275;48.800;18.102;2023-03-31T14:45:40;15.68;;;9.77;;
43676;SDS011;29275;48.800;18.102;2023-03-31T14:48:45;17.83;;;10.68;;
43676;SDS011;29275;48.800;18.102;2023-03-31T14:51:50;15.55;;;9.93;;
43676;SDS011;29275;48.800;18.102;2023-03-31T14:54:54;14.90;;;10.05;;
43676;SDS011;29275;48.800;18.102;2023-03-31T14:57:58;15.68;;;11.02;;
43676;SDS011;29275;48.800;18.102;2023-03-31T15:01:02;13.90;;;9.23;;
43676;SDS011;29275;48.800;18.102;2023-03-31T15:04:12;17.75;;;11.50;;
43676;SDS011;29275;48.800;18.102;2023-03-31T15:07:16;17.02;;;11.15;;
43676;SDS011;29275;48.800;18.102;2023-03-31T15:10:19;21.13;;;13.55;;
43676;SDS011;29275;48.800;18.102;2023-03-31T15:13:33;23.42;;;15.55;;
43676;SDS011;29275;48.800;18.102;2023-03-31T15:17:05;19.42;;;12.60;;
43676;SDS011;29275;48.800;18.102;2023-03-31T15:20:28;18.77;;;11.05;;
43676;SDS011;29275;48.800;18.102;2023-03-31T15:23:36;22.20;;;11.35;;
43676;SDS011;29275;48.800;18.102;2023-03-31T15:26:46;13.65;;;10.20;;
43676;SDS011;29275;48.800;18.102;2023-03-31T15:30:04;13.80;;;9.60;;
43676;SDS011;29275;48.800;18.102;2023-03-31T15:33:14;18.33;;;12.53;;
43676;SDS011;29275;48.800;18.102;2023-03-31T15:36:21;16.63;;;10.88;;
43676;SDS011;29275;48.800;18.102;2023-03-31T15:39:25;111.45;;;25.73;;
43676;SDS011;29275;48.800;18.102;2023-03-31T15:42:29;24.35;;;15.38;;
43676;SDS011;29275;48.800;18.102;2023-03-31T15:48:53;20.77;;;13.75;;
43676;SDS011;29275;48.800;18.102;2023-03-31T15:51:57;16.67;;;11.02;;
43676;SDS011;29275;48.800;18.102;2023-03-31T15:55:22;18.27;;;11.27;;
43676;SDS011;29275;48.800;18.102;2023-03-31T16:01:57;17.45;;;11.98;;
43676;SDS011;29275;48.800;18.102;2023-03-31T16:05:01;23.98;;;13.38;;
43676;SDS011;29275;48.800;18.102;2023-03-31T16:08:16;16.27;;;11.60;;
43676;SDS011;29275;48.800;18.102;2023-03-31T16:11:27;20.23;;;13.40;;
43676;SDS011;29275;48.800;18.102;2023-03-31T16:14:42;21.65;;;14.82;;
43676;SDS011;29275;48.800;18.102;2023-03-31T16:18:17;30.13;;;19.00;;
43676;SDS011;29275;48.800;18.102;2023-03-31T16:21:32;58.75;;;35.40;;
43676;SDS011;29275;48.800;18.102;2023-03-31T16:24:41;49.53;;;31.27;;
43676;SDS011;29275;48.800;18.102;2023-03-31T16:27:44;42.72;;;26.38;;
43676;SDS011;29275;48.800;18.102;2023-03-31T16:30:49;46.50;;;30.65;;
43676;SDS011;29275;48.800;18.102;2023-03-31T16:33:53;36.28;;;23.48;;
43676;SDS011;29275;48.800;18.102;2023-03-31T16:36:57;24.17;;;16.90;;
43676;SDS011;29275;48.800;18.102;2023-03-31T16:39:59;30.77;;;21.23;;
43676;SDS011;29275;48.800;18.102;2023-03-31T16:43:09;33.63;;;22.52;;
43676;SDS011;29275;48.800;18.102;2023-03-31T16:46:20;28.98;;;19.70;;
43676;SDS011;29275;48.800;18.102;2023-03-31T16:49:23;28.08;;;19.40;;
43676;SDS011;29275;48.800;18.102;2023-03-31T16:52:27;37.97;;;24.70;;
43676;SDS011;29275;48.800;18.102;2023-03-31T16:55:30;57.78;;;28.00;;
43676;SDS011;29275;48.800;18.102;2023-03-31T16:58:34;204.57;;;77.68;;
43676;SDS011;29275;48.800;18.102;2023-03-31T17:01:39;256.58;;;99.38;;
43676;SDS011;29275;48.800;18.102;2023-03-31T17:04:45;84.32;;;42.58;;
43676;SDS011;29275;48.800;18.102;2023-03-31T17:07:50;66.88;;;28.60;;
43676;SDS011;29275;48.800;18.102;2023-03-31T17:14:05;62.42;;;23.05;;
43676;SDS011;29275;48.800;18.102;2023-03-31T17:17:08;25.42;;;12.48;;
43676;SDS011;29275;48.800;18.102;2023-03-31T17:20:11;20.70;;;12.00;;
43676;SDS011;29275;48.800;18.102;2023-03-31T17:23:14;14.25;;;9.57;;
43676;SDS011;29275;48.800;18.102;2023-03-31T17:26:17;14.13;;;8.43;;
43676;SDS011;29275;48.800;18.102;2023-03-31T17:29:20;10.98;;;7.35;;
43676;SDS011;29275;48.800;18.102;2023-03-31T17:32:23;15.88;;;8.13;;
43676;SDS011;29275;48.800;18.102;2023-03-31T17:35:26;13.27;;;7.57;;
43676;SDS011;29275;48.800;18.102;2023-03-31T17:38:29;44.25;;;16.38;;
43676;SDS011;29275;48.800;18.102;2023-03-31T17:41:32;46.67;;;19.38;;
43676;SDS011;29275;48.800;18.102;2023-03-31T17:44:35;14.32;;;9.40;;
43676;SDS011;29275;48.800;18.102;2023-03-31T17:47:39;38.55;;;18.15;;
43676;SDS011;29275;48.800;18.102;2023-03-31T17:50:43;6.47;;;4.10;;
43676;SDS011;29275;48.800;18.102;2023-03-31T17:53:46;10.30;;;6.68;;
43676;SDS011;29275;48.800;18.102;2023-03-31T17:56:49;6.57;;;2.75;;
43676;SDS011;29275;48.800;18.102;2023-03-31T17:59:53;8.55;;;2.15;;
43676;SDS011;29275;48.800;18.102;2023-03-31T18:02:57;6.38;;;3.40;;
43676;SDS011;29275;48.800;18.102;2023-03-31T18:06:01;2.95;;;1.48;;
43676;SDS011;29275;48.800;18.102;2023-03-31T18:09:13;5.10;;;1.63;;
43676;SDS011;29275;48.800;18.102;2023-03-31T18:12:16;21.48;;;10.18;;
43676;SDS011;29275;48.800;18.102;2023-03-31T18:15:22;7.80;;;3.72;;
43676;SDS011;29275;48.800;18.102;2023-03-31T18:18:30;6.70;;;2.67;;
43676;SDS011;29275;48.800;18.102;2023-03-31T18:21:32;5.53;;;3.85;;
43676;SDS011;29275;48.800;18.102;2023-03-31T18:24:36;4.68;;;2.78;;
43676;SDS011;29275;48.800;18.102;2023-03-31T18:27:41;17.77;;;6.80;;
43676;SDS011;29275;48.800;18.102;2023-03-31T18:30:44;6.28;;;1.63;;
43676;SDS011;29275;48.800;18.102;2023-03-31T18:33:48;4.82;;;1.40;;
43676;SDS011;29275;48.800;18.102;2023-03-31T18:36:53;10.68;;;3.95;;
43676;SDS011;29275;48.800;18.102;2023-03-31T18:39:57;2.10;;;1.27;;
43676;SDS011;29275;48.800;18.102;2023-03-31T18:43:00;3.42;;;1.63;;
43676;SDS011;29275;48.800;18.102;2023-03-31T18:46:04;3.92;;;1.67;;
43676;SDS011;29275;48.800;18.102;2023-03-31T18:49:07;3.08;;;1.50;;
43676;SDS011;29275;48.800;18.102;2023-03-31T18:52:10;4.43;;;2.00;;
43676;SDS011;29275;48.800;18.102;2023-03-31T18:55:13;5.78;;;1.23;;
43676;SDS011;29275;48.800;18.102;2023-03-31T18:58:16;2.13;;;1.02;;
43676;SDS011;29275;48.800;18.102;2023-03-31T19:01:19;6.80;;;1.13;;
43676;SDS011;29275;48.800;18.102;2023-03-31T19:04:23;4.53;;;1.20;;
43676;SDS011;29275;48.800;18.102;2023-03-31T19:07:26;4.60;;;1.08;;
43676;SDS011;29275;48.800;18.102;2023-03-31T19:10:29;1.80;;;1.10;;
43676;SDS011;29275;48.800;18.102;2023-03-31T19:13:32;2.63;;;1.05;;
43676;SDS011;29275;48.800;18.102;2023-03-31T19:16:35;2.83;;;1.05;;
43676;SDS011;29275;48.800;18.102;2023-03-31T19:19:43;6.18;;;1.75;;
43676;SDS011;29275;48.800;18.102;2023-03-31T19:22:48;2.72;;;0.95;;
43676;SDS011;29275;48.800;18.102;2023-03-31T19:25:52;1.95;;;0.80;;
43676;SDS011;29275;48.800;18.102;2023-03-31T19:28:55;4.28;;;0.90;;
43676;SDS011;29275;48.800;18.102;2023-03-31T19:31:58;5.78;;;1.00;;
43676;SDS011;29275;48.800;18.102;2023-03-31T19:35:01;2.67;;;1.13;;
43676;SDS011;29275;48.800;18.102;2023-03-31T19:38:04;4.00;;;1.33;;
43676;SDS011;29275;48.800;18.102;2023-03-31T19:41:07;3.25;;;0.88;;
43676;SDS011;29275;48.800;18.102;2023-03-31T19:44:12;4.40;;;1.63;;
43676;SDS011;29275;48.800;18.102;2023-03-31T19:47:15;3.15;;;1.25;;
43676;SDS011;29275;48.800;18.102;2023-03-31T19:50:18;3.95;;;1.10;;
43676;SDS011;29275;48.800;18.102;2023-03-31T19:53:21;3.13;;;1.50;;
43676;SDS011;29275;48.800;18.102;2023-03-31T19:56:25;3.33;;;1.20;;
43676;SDS011;29275;48.800;18.102;2023-03-31T19:59:28;3.95;;;1.25;;
43676;SDS011;29275;48.800;18.102;2023-03-31T20:02:31;4.25;;;1.50;;
43676;SDS011;29275;48.800;18.102;2023-03-31T20:05:34;2.10;;;1.05;;
43676;SDS011;29275;48.800;18.102;2023-03-31T20:08:38;2.15;;;1.00;;
43676;SDS011;29275;48.800;18.102;2023-03-31T20:11:45;2.17;;;1.00;;
43676;SDS011;29275;48.800;18.102;2023-03-31T20:14:48;2.45;;;1.00;;
43676;SDS011;29275;48.800;18.102;2023-03-31T20:17:51;2.25;;;1.10;;
43676;SDS011;29275;48.800;18.102;2023-03-31T20:21:01;3.03;;;1.08;;
43676;SDS011;29275;48.800;18.102;2023-03-31T20:27:18;2.58;;;0.88;;
43676;SDS011;29275;48.800;18.102;2023-03-31T20:30:24;8.02;;;3.45;;
43676;SDS011;29275;48.800;18.102;2023-03-31T20:33:27;2.15;;;1.25;;
43676;SDS011;29275;48.800;18.102;2023-03-31T20:36:30;2.08;;;0.98;;
43676;SDS011;29275;48.800;18.102;2023-03-31T20:39:33;3.95;;;1.23;;
43676;SDS011;29275;48.800;18.102;2023-03-31T20:42:36;2.92;;;1.15;;
43676;SDS011;29275;48.800;18.102;2023-03-31T20:45:39;3.53;;;0.98;;
43676;SDS011;29275;48.800;18.102;2023-03-31T20:48:43;5.93;;;2.13;;
43676;SDS011;29275;48.800;18.102;2023-03-31T20:51:47;2.22;;;1.20;;
43676;SDS011;29275;48.800;18.102;2023-03-31T20:54:50;5.80;;;2.45;;
43676;SDS011;29275;48.800;18.102;2023-03-31T20:57:53;4.10;;;1.63;;
43676;SDS011;29275;48.800;18.102;2023-03-31T21:00:56;2.67;;;1.10;;
43676;SDS011;29275;48.800;18.102;2023-03-31T21:04:00;5.20;;;1.88;;
43676;SDS011;29275;48.800;18.102;2023-03-31T21:07:05;2.55;;;1.10;;
43676;SDS011;29275;48.800;18.102;2023-03-31T21:10:08;5.28;;;1.02;;
43676;SDS011;29275;48.800;18.102;2023-03-31T21:13:13;5.82;;;1.13;;
43676;SDS011;29275;48.800;18.102;2023-03-31T21:16:17;2.00;;;1.00;;